Aéroport int. de Vancouver, Colombie-Britannique

Conditions des dernières 24 heures

Date / Heure
(HAP)
Conditions Temp
(°F)
Humidité
(%)
Point de rosée
(°F)
Vent
(mph)
Pression (pouces) Visibilité
(miles)
25 octobre 2014
2:00 Pluie faible 49 87 46 N 5 29.8 15
1:00 Pluie faible 50 86 46 NNE 6 29.8 15
0:00 Généralement nuageux 50 83 46 ESE 5 29.8 20
24 octobre 2014
23:00 Généralement nuageux 50 81 44 E 4 29.9 30
22:00 Généralement nuageux 51 82 46 calme 29.9 30
21:00 Généralement nuageux 51 76 44 E 5 29.9 30
20:00 Généralement nuageux 51 77 44 E 4 29.9 30
19:00 Généralement nuageux 50 82 45 NNE 3 29.9 30
18:00 Généralement nuageux 52 81 46 NO 4 29.9 30
17:00 Généralement nuageux 55 72 46 NE 5 29.9 30
16:00 Généralement nuageux 56 67 46 NNE 6 30.0 20
15:00 Généralement nuageux 57   66 45 NE 9 30.0 20
14:00 Généralement nuageux 56 66 45 ENE 8 30.0 20
13:00 Généralement nuageux 55 69 45 ENE 10 30.1 20
12:00 Généralement nuageux 54 72 45 ENE 9 30.1 20
11:00 Généralement nuageux 53 79 47 ENE 8 30.1 20
10:00 Généralement nuageux 52 84 47 ENE 9 30.1 20
9:00 Généralement nuageux 50 87 47 ENE 10 30.1 15
8:00 Généralement nuageux 49 94 47 E 9 30.1 15
7:00 Généralement nuageux 48   93 46 E 6 30.1 15
6:00 Généralement nuageux 49 91 46 ENE 6 30.0 15
5:00 Généralement nuageux 49 91 46 ENE 6 30.0 15
4:00 Généralement nuageux 49 90 46 ENE 5 30.0 15
3:00 Généralement nuageux 49 90 46 ENE 7 30.0 15
2:00 Généralement nuageux 49 92 47 NE 7 30.0 15
N.D. non disponible
↑ température la plus haute
↓ température la plus basse

Si vous désirez plus de données historiques sur les conditions météo, s.v.p. visitez Données climatologiques en ligne.

Date de modification :